createdAt,value
2019-03-01T00:01:01.699Z,35.68
2019-03-01T00:03:36.341Z,35.40
2019-03-01T00:06:22.549Z,34.73
2019-03-01T00:09:32.791Z,37.17
2019-03-01T00:12:18.863Z,36.08
2019-03-01T00:17:39.428Z,37.17
2019-03-01T00:20:35.758Z,35.40
2019-03-01T00:26:17.708Z,32.75
2019-03-01T00:29:05.339Z,37.70
2019-03-01T00:31:52.944Z,36.50
2019-03-01T00:34:49.494Z,35.90
2019-03-01T00:37:29.566Z,32.65
2019-03-01T00:40:20.156Z,32.05
2019-03-01T00:42:59.056Z,32.28
2019-03-01T00:45:33.376Z,31.77
2019-03-01T00:48:06.730Z,33.25
2019-03-01T00:50:41.302Z,33.28
2019-03-01T00:53:14.802Z,34.23
2019-03-01T00:55:48.394Z,37.05
2019-03-01T00:58:22.826Z,33.18
2019-03-01T01:00:57.546Z,33.13
2019-03-01T01:03:34.378Z,32.73
2019-03-01T01:06:08.924Z,29.45
2019-03-01T01:08:43.312Z,35.98
2019-03-01T01:11:16.761Z,40.60
2019-03-01T01:13:50.121Z,39.83
2019-03-01T01:16:24.603Z,37.78
2019-03-01T01:18:58.021Z,39.27
2019-03-01T01:21:31.746Z,37.20
2019-03-01T01:24:06.138Z,38.20
2019-03-01T01:26:40.546Z,34.23
2019-03-01T01:29:35.366Z,34.30
2019-03-01T01:32:10.105Z,35.45
2019-03-01T01:34:43.569Z,36.53
2019-03-01T01:37:17.074Z,36.93
2019-03-01T01:39:50.678Z,36.28
2019-03-01T01:42:23.983Z,35.50
2019-03-01T01:44:58.449Z,34.70
2019-03-01T01:47:31.806Z,35.60
2019-03-01T01:50:06.271Z,35.73
2019-03-01T01:52:39.538Z,33.98
2019-03-01T01:55:13.044Z,33.50
2019-03-01T01:57:46.483Z,37.15
2019-03-01T02:00:20.028Z,33.98
2019-03-01T02:02:53.225Z,35.65
2019-03-01T02:05:27.611Z,38.50
2019-03-01T02:08:01.932Z,36.63
2019-03-01T02:10:35.376Z,36.77
2019-03-01T02:13:11.589Z,38.67
2019-03-01T02:15:44.931Z,38.92
2019-03-01T02:18:18.467Z,38.75
2019-03-01T02:20:51.895Z,39.63
2019-03-01T02:23:27.099Z,36.80
2019-03-01T02:26:00.755Z,37.35
2019-03-01T02:28:35.792Z,37.08
2019-03-01T02:31:11.818Z,32.42
2019-03-01T02:33:46.272Z,36.75
2019-03-01T02:36:20.293Z,36.63
2019-03-01T02:38:53.589Z,35.90
2019-03-01T02:41:26.897Z,36.80
2019-03-01T02:44:00.304Z,37.48
2019-03-01T02:46:34.860Z,39.78
2019-03-01T02:49:08.099Z,39.60
2019-03-01T02:51:41.525Z,41.05
2019-03-01T02:54:16.164Z,37.90
2019-03-01T02:56:49.760Z,35.30
2019-03-01T02:59:24.330Z,37.40
2019-03-01T03:01:58.652Z,35.13
2019-03-01T03:04:32.024Z,34.25
2019-03-01T03:07:09.959Z,35.73
2019-03-01T03:09:43.330Z,35.52
2019-03-01T03:12:16.944Z,37.35
2019-03-01T03:14:50.502Z,34.85
2019-03-01T03:17:26.920Z,30.27
2019-03-01T03:20:01.496Z,32.03
2019-03-01T03:22:35.310Z,32.42
2019-03-01T03:25:13.199Z,30.60
2019-03-01T03:27:46.608Z,31.12
2019-03-01T03:30:21.663Z,31.25
2019-03-01T03:32:54.997Z,30.80
2019-03-01T03:35:29.840Z,33.88
2019-03-01T03:38:04.332Z,33.98
2019-03-01T03:40:37.781Z,33.67
2019-03-01T03:43:11.290Z,37.67
2019-03-01T03:45:44.668Z,41.48
2019-03-01T03:48:19.138Z,41.55
2019-03-01T03:50:55.003Z,39.98
2019-03-01T03:53:28.804Z,39.27
2019-03-01T03:56:03.356Z,38.48
2019-03-01T03:58:36.778Z,39.45
2019-03-01T04:01:10.202Z,38.10
2019-03-01T04:03:44.701Z,37.00
2019-03-01T04:06:19.420Z,35.08
2019-03-01T04:08:52.832Z,34.57
2019-03-01T04:11:27.460Z,34.78
2019-03-01T04:14:01.873Z,37.87
2019-03-01T04:16:35.187Z,37.75
2019-03-01T04:19:08.695Z,34.83
2019-03-01T04:21:43.184Z,38.73
2019-03-01T04:24:17.749Z,37.90
2019-03-01T04:26:51.472Z,37.28
2019-03-01T04:29:25.156Z,37.55
2019-03-01T04:31:58.701Z,34.35
2019-03-01T04:34:32.126Z,35.60
2019-03-01T04:37:05.582Z,33.83
2019-03-01T04:39:42.440Z,33.25
2019-03-01T04:42:15.984Z,37.73
2019-03-01T04:44:49.157Z,35.38
2019-03-01T04:47:22.699Z,36.10
2019-03-01T04:49:56.232Z,31.93
2019-03-01T04:52:33.721Z,32.08
2019-03-01T04:55:11.729Z,32.95
2019-03-01T04:57:45.122Z,35.35
2019-03-01T05:00:21.495Z,43.98
2019-03-01T05:02:55.253Z,34.92
2019-03-01T05:05:28.625Z,33.63
2019-03-01T05:08:01.984Z,35.17
2019-03-01T05:10:35.805Z,34.35
2019-03-01T05:13:10.771Z,33.45
2019-03-01T05:15:44.204Z,33.45
2019-03-01T05:18:17.674Z,33.25
2019-03-01T05:20:51.852Z,32.83
2019-03-01T05:23:28.515Z,33.42
2019-03-01T05:26:05.770Z,30.45
2019-03-01T05:28:49.027Z,31.33
2019-03-01T05:31:22.336Z,32.05
2019-03-01T05:34:02.581Z,31.95
2019-03-01T05:36:37.134Z,30.72
2019-03-01T05:39:13.204Z,32.08
2019-03-01T05:41:47.796Z,31.73
2019-03-01T05:44:22.231Z,33.30
2019-03-01T05:46:55.779Z,30.50
2019-03-01T05:49:30.332Z,38.93
2019-03-01T05:52:04.566Z,35.68
2019-03-01T05:54:38.015Z,32.10
2019-03-01T05:57:11.810Z,34.35
2019-03-01T05:59:46.395Z,31.93
2019-03-01T06:02:25.950Z,31.05
2019-03-01T06:05:00.873Z,31.12
2019-03-01T06:07:44.061Z,30.88
2019-03-01T06:10:22.923Z,31.82
2019-03-01T06:13:13.888Z,31.93
2019-03-01T06:15:55.350Z,33.83
2019-03-01T06:18:44.357Z,30.62
2019-03-01T06:21:43.375Z,31.77
2019-03-01T06:24:31.713Z,28.95
2019-03-01T06:27:16.236Z,31.57
2019-03-01T06:30:03.363Z,35.03
2019-03-01T06:32:47.814Z,32.63
2019-03-01T06:35:42.347Z,32.63
2019-03-01T06:38:55.665Z,34.00
2019-03-01T06:41:53.609Z,31.25
2019-03-01T06:44:30.467Z,32.58
2019-03-01T06:47:11.943Z,34.25
2019-03-01T06:50:00.507Z,33.08
2019-03-01T06:52:35.035Z,31.75
2019-03-01T06:55:10.159Z,33.18
2019-03-01T06:57:43.859Z,30.30
2019-03-01T07:00:17.356Z,33.63
2019-03-01T07:02:51.200Z,32.20
2019-03-01T07:05:25.852Z,30.77
2019-03-01T07:08:00.679Z,31.57
2019-03-01T07:10:34.168Z,33.00
2019-03-01T07:13:09.786Z,33.42
2019-03-01T07:15:43.399Z,32.53
2019-03-01T07:18:16.948Z,32.05
2019-03-01T07:20:51.749Z,33.83
2019-03-01T07:23:25.240Z,31.57
2019-03-01T07:25:59.832Z,33.23
2019-03-01T07:28:33.583Z,36.20
2019-03-01T07:31:08.281Z,35.05
2019-03-01T07:33:41.774Z,36.08
2019-03-01T07:36:16.500Z,37.20
2019-03-01T07:38:50.984Z,36.07
2019-03-01T07:41:24.513Z,33.95
2019-03-01T07:43:59.198Z,34.73
2019-03-01T07:46:33.125Z,34.37
2019-03-01T07:49:07.434Z,32.95
2019-03-01T07:51:40.883Z,34.65
2019-03-01T07:54:16.903Z,36.08
2019-03-01T07:56:50.209Z,43.08
2019-03-01T07:59:24.842Z,48.25
2019-03-01T08:02:00.799Z,54.18
2019-03-01T08:04:34.378Z,49.98
2019-03-01T08:07:07.746Z,53.15
2019-03-01T08:09:41.285Z,54.27
2019-03-01T08:12:16.771Z,54.10
2019-03-01T08:14:51.213Z,49.98
2019-03-01T08:17:31.554Z,51.18
2019-03-01T08:20:03.845Z,51.77
2019-03-01T08:22:47.987Z,43.17
2019-03-01T08:27:50.084Z,43.95
2019-03-01T08:30:22.621Z,43.10
2019-03-01T08:32:57.279Z,42.45
2019-03-01T08:35:32.409Z,42.70
2019-03-01T08:38:06.707Z,40.83
2019-03-01T08:40:40.369Z,42.48
2019-03-01T08:43:13.751Z,38.05
2019-03-01T08:45:49.468Z,40.25
2019-03-01T08:48:24.933Z,42.80
2019-03-01T08:50:58.579Z,40.20
2019-03-01T08:53:32.015Z,40.58
2019-03-01T08:56:05.604Z,40.10
2019-03-01T08:58:41.445Z,42.85
2019-03-01T09:01:35.152Z,43.83
2019-03-01T09:04:17.340Z,44.40
2019-03-01T09:06:49.104Z,45.15
2019-03-01T09:09:22.587Z,43.58
2019-03-01T09:11:55.899Z,41.42
2019-03-01T09:14:30.341Z,45.33
2019-03-01T09:17:06.018Z,47.25
2019-03-01T09:19:39.824Z,41.42
2019-03-01T09:22:14.119Z,44.33
2019-03-01T09:24:48.550Z,40.70
2019-03-01T09:27:23.005Z,40.12
2019-03-01T09:29:59.367Z,45.03
2019-03-01T09:32:33.854Z,42.83
2019-03-01T09:35:09.176Z,45.08
2019-03-01T09:37:42.420Z,42.65
2019-03-01T09:40:17.089Z,44.73
2019-03-01T09:42:51.383Z,46.97
2019-03-01T09:45:35.586Z,45.23
2019-03-01T09:48:02.279Z,45.45
2019-03-01T09:50:38.113Z,48.98
2019-03-01T09:53:33.974Z,47.07
2019-03-01T09:56:05.329Z,47.27
2019-03-01T09:58:58.586Z,44.60
2019-03-01T10:01:53.369Z,44.03
2019-03-01T10:04:26.989Z,45.48
2019-03-01T10:07:01.818Z,45.40
2019-03-01T10:09:35.388Z,42.43
2019-03-01T10:12:08.703Z,45.88
2019-03-01T10:14:42.961Z,44.15
2019-03-01T10:17:16.391Z,43.13
2019-03-01T10:19:49.739Z,46.25
2019-03-01T10:22:24.917Z,46.08
2019-03-01T10:24:58.666Z,45.48
2019-03-01T10:27:32.168Z,45.65
2019-03-01T10:30:08.019Z,45.00
2019-03-01T10:32:42.702Z,46.68
2019-03-01T10:35:16.903Z,42.60
2019-03-01T10:37:52.991Z,44.65
2019-03-01T10:40:27.653Z,45.80
2019-03-01T10:43:02.465Z,45.15
2019-03-01T10:45:38.060Z,45.85
2019-03-01T10:48:11.795Z,45.05
2019-03-01T10:50:45.276Z,44.70
2019-03-01T10:53:19.031Z,47.50
2019-03-01T10:55:52.422Z,49.00
2019-03-01T10:58:25.870Z,48.68
2019-03-01T11:01:05.265Z,51.42
2019-03-01T11:03:39.637Z,47.95
2019-03-01T11:06:13.158Z,49.13
2019-03-01T11:08:47.877Z,52.10
2019-03-01T11:11:22.305Z,52.33
2019-03-01T11:13:56.666Z,49.95
2019-03-01T11:16:30.997Z,46.58
2019-03-01T11:19:04.412Z,46.25
2019-03-01T11:21:39.367Z,47.45
2019-03-01T11:24:13.963Z,43.20
2019-03-01T11:26:47.418Z,48.73
2019-03-01T11:29:22.348Z,47.05
2019-03-01T11:31:55.771Z,48.17
2019-03-01T11:34:29.550Z,51.00
2019-03-01T11:37:03.286Z,49.93
2019-03-01T11:39:38.184Z,50.48
2019-03-01T11:42:11.507Z,51.05
2019-03-01T11:45:03.952Z,49.77
2019-03-01T11:48:00.218Z,49.50
2019-03-01T11:50:41.451Z,45.03
2019-03-01T11:53:15.462Z,47.33
2019-03-01T11:55:50.578Z,53.05
2019-03-01T11:58:26.260Z,52.43
2019-03-01T12:01:03.111Z,53.70
2019-03-01T12:03:37.757Z,55.52
2019-03-01T12:06:12.936Z,53.73
2019-03-01T12:08:48.847Z,52.08
2019-03-01T12:11:23.470Z,54.35
2019-03-01T12:13:57.061Z,52.05
2019-03-01T12:16:31.607Z,49.33
2019-03-01T12:19:05.012Z,50.83
2019-03-01T12:21:40.546Z,49.38
2019-03-01T12:24:16.543Z,52.23
2019-03-01T12:26:52.306Z,52.78
2019-03-01T12:29:30.031Z,49.98
2019-03-01T12:32:06.667Z,48.78
2019-03-01T12:34:46.457Z,49.60
2019-03-01T12:37:24.492Z,49.93
2019-03-01T12:39:58.942Z,48.28
2019-03-01T12:42:33.926Z,51.05
2019-03-01T12:45:08.520Z,51.15
2019-03-01T12:47:43.318Z,52.78
2019-03-01T12:50:24.230Z,52.93
2019-03-01T12:53:11.272Z,54.27
2019-03-01T12:55:41.103Z,53.40
2019-03-01T12:58:19.354Z,54.18
2019-03-01T13:01:12.959Z,60.03
2019-03-01T13:03:47.780Z,58.80
2019-03-01T13:06:22.931Z,63.02
2019-03-01T13:08:56.465Z,55.60
2019-03-01T13:11:31.196Z,55.33
2019-03-01T13:14:04.687Z,58.43
2019-03-01T13:16:43.721Z,60.60
2019-03-01T13:19:18.200Z,54.42
2019-03-01T13:21:54.825Z,52.95
2019-03-01T13:24:33.402Z,52.08
2019-03-01T13:27:07.994Z,54.38
2019-03-01T13:29:43.305Z,53.25
2019-03-01T13:32:19.965Z,50.70
2019-03-01T13:34:58.522Z,52.90
2019-03-01T13:37:33.303Z,53.20
2019-03-01T13:40:10.064Z,50.85
2019-03-01T13:42:43.532Z,47.33
2019-03-01T13:45:21.449Z,48.65
2019-03-01T13:47:57.162Z,49.67
2019-03-01T13:50:33.393Z,48.50
2019-03-01T13:53:08.412Z,48.23
2019-03-01T13:55:43.336Z,46.88
2019-03-01T13:58:16.926Z,48.90
2019-03-01T14:00:51.648Z,49.48
2019-03-01T14:03:28.470Z,47.58
2019-03-01T14:06:07.559Z,48.35
2019-03-01T14:08:48.045Z,47.38
2019-03-01T14:11:24.033Z,49.05
2019-03-01T14:13:57.611Z,47.50
2019-03-01T14:16:31.124Z,48.38
2019-03-01T14:19:07.882Z,40.12
2019-03-01T14:21:55.901Z,42.95
2019-03-01T14:24:30.475Z,41.30
2019-03-01T14:27:10.289Z,42.38
2019-03-01T14:29:52.354Z,42.03
2019-03-01T14:32:28.374Z,36.70
2019-03-01T14:35:05.495Z,40.25
2019-03-01T14:37:46.228Z,37.55
2019-03-01T14:40:22.743Z,38.98
2019-03-01T14:42:59.920Z,36.90
2019-03-01T14:45:37.565Z,39.67
2019-03-01T14:48:12.376Z,37.38
2019-03-01T14:50:45.959Z,35.90
2019-03-01T14:53:19.381Z,39.08
2019-03-01T14:56:02.372Z,38.48
2019-03-01T14:58:42.969Z,40.80
2019-03-01T15:01:33.575Z,38.90
2019-03-01T15:04:11.468Z,38.75
2019-03-01T15:06:51.342Z,34.60
2019-03-01T15:09:24.806Z,38.80
2019-03-01T15:11:59.276Z,38.48
2019-03-01T15:14:34.044Z,36.45
2019-03-01T15:19:46.399Z,36.77
2019-03-01T15:22:31.569Z,36.70
2019-03-01T15:25:12.020Z,36.98
2019-03-01T15:27:44.404Z,38.70
2019-03-01T15:30:26.057Z,34.58
2019-03-01T15:33:02.353Z,35.88
2019-03-01T15:35:40.715Z,35.68
2019-03-01T15:38:20.203Z,36.63
2019-03-01T15:40:55.164Z,36.58
2019-03-01T15:43:31.032Z,34.92
2019-03-01T15:46:05.379Z,36.35
2019-03-01T15:48:43.270Z,32.60
2019-03-01T15:51:21.743Z,37.55
2019-03-01T15:53:57.626Z,34.13
2019-03-01T15:56:35.894Z,33.40
2019-03-01T15:59:12.161Z,34.00
2019-03-01T16:01:47.323Z,33.18
2019-03-01T16:04:22.804Z,32.65
2019-03-01T16:07:00.643Z,32.05
2019-03-01T16:09:41.723Z,34.38
2019-03-01T16:12:23.721Z,34.75
2019-03-01T16:15:07.970Z,33.42
2019-03-01T16:17:44.709Z,34.67
2019-03-01T16:20:28.609Z,32.17
2019-03-01T16:23:05.484Z,30.55
2019-03-01T16:25:39.590Z,30.80
2019-03-01T16:28:34.193Z,34.75
2019-03-01T16:31:18.832Z,30.87
2019-03-01T16:34:00.864Z,33.35
2019-03-01T16:36:40.922Z,32.85
2019-03-01T16:39:16.519Z,31.05
2019-03-01T16:41:51.998Z,32.93
2019-03-01T16:44:29.574Z,28.07
2019-03-01T16:47:03.493Z,31.70
2019-03-01T16:49:43.304Z,32.95
2019-03-01T16:52:20.409Z,29.75
2019-03-01T16:54:56.268Z,30.80
2019-03-01T16:57:36.729Z,32.58
2019-03-01T17:00:20.468Z,34.27
2019-03-01T17:02:57.384Z,32.53
2019-03-01T17:05:31.926Z,33.02
2019-03-01T17:10:46.548Z,33.67
2019-03-01T17:13:19.996Z,30.57
2019-03-01T17:15:55.861Z,32.90
2019-03-01T17:18:38.614Z,33.75
2019-03-01T17:21:15.738Z,29.67
2019-03-01T17:23:50.645Z,32.40
2019-03-01T17:26:26.237Z,30.40
2019-03-01T17:29:03.194Z,33.75
2019-03-01T17:31:47.883Z,31.17
2019-03-01T17:34:25.887Z,33.18
2019-03-01T17:37:01.047Z,35.63
2019-03-01T17:39:41.006Z,35.43
2019-03-01T17:42:17.386Z,36.55
2019-03-01T17:44:50.024Z,30.57
2019-03-01T17:47:25.314Z,34.40
2019-03-01T17:50:00.293Z,36.65
2019-03-01T17:52:35.837Z,36.33
2019-03-01T17:55:13.997Z,37.05
2019-03-01T17:57:52.107Z,33.75
2019-03-01T18:00:35.014Z,32.40
2019-03-01T18:03:11.026Z,34.58
2019-03-01T18:05:45.692Z,35.03
2019-03-01T18:08:20.433Z,32.03
2019-03-01T18:10:53.859Z,35.20
2019-03-01T18:13:28.379Z,33.78
2019-03-01T18:16:02.168Z,34.45
2019-03-01T18:18:35.561Z,34.15
2019-03-01T18:21:13.038Z,31.70
2019-03-01T18:23:45.977Z,34.50
2019-03-01T18:26:25.203Z,35.03
2019-03-01T18:29:00.949Z,34.08
2019-03-01T18:31:56.822Z,33.00
2019-03-01T18:34:35.623Z,36.13
2019-03-01T18:37:19.215Z,34.63
2019-03-01T18:39:47.354Z,32.38
2019-03-01T18:42:21.848Z,31.73
2019-03-01T18:45:15.342Z,33.85
2019-03-01T18:47:48.684Z,32.33
2019-03-01T18:50:31.187Z,34.10
2019-03-01T18:53:04.166Z,32.50
2019-03-01T18:55:37.914Z,30.45
2019-03-01T18:58:13.998Z,32.17
2019-03-01T19:00:48.530Z,29.82
2019-03-01T19:03:22.049Z,31.07
2019-03-01T19:05:56.505Z,30.77
2019-03-01T19:08:29.864Z,30.55
2019-03-01T19:11:03.807Z,30.70
2019-03-01T19:13:37.594Z,30.72
2019-03-01T19:16:12.024Z,32.30
2019-03-01T19:18:48.309Z,30.55
2019-03-01T19:21:24.018Z,29.30
2019-03-01T19:23:57.462Z,30.65
2019-03-01T19:26:33.800Z,30.55
2019-03-01T19:29:06.566Z,29.95
2019-03-01T19:31:40.005Z,30.88
2019-03-01T19:34:16.841Z,28.20
2019-03-01T19:36:48.277Z,32.10
2019-03-01T19:39:23.433Z,30.10
2019-03-01T19:41:58.034Z,29.92
2019-03-01T19:44:31.519Z,29.40
2019-03-01T19:47:06.255Z,28.62
2019-03-01T19:49:39.763Z,29.65
2019-03-01T19:52:13.065Z,29.48
2019-03-01T19:54:49.330Z,28.00
2019-03-01T19:57:24.091Z,29.72
2019-03-01T19:59:58.780Z,29.57
2019-03-01T20:02:32.533Z,29.90
2019-03-01T20:05:05.898Z,26.97
2019-03-01T20:07:39.180Z,28.70
2019-03-01T20:10:17.094Z,29.90
2019-03-01T20:12:53.422Z,27.02
2019-03-01T20:15:27.573Z,27.55
2019-03-01T20:18:02.363Z,29.45
2019-03-01T20:20:37.013Z,31.53
2019-03-01T20:23:10.452Z,28.53
2019-03-01T20:25:43.886Z,28.42
2019-03-01T20:28:17.225Z,29.25
2019-03-01T20:30:50.621Z,27.95
2019-03-01T20:33:27.118Z,31.77
2019-03-01T20:36:00.058Z,31.02
2019-03-01T20:38:37.077Z,31.12
2019-03-01T20:41:09.460Z,30.70
2019-03-01T20:43:43.862Z,26.75
2019-03-01T20:46:17.325Z,28.35
2019-03-01T20:49:11.804Z,29.10
2019-03-01T20:51:52.389Z,29.15
2019-03-01T20:54:26.991Z,28.50
2019-03-01T20:57:01.351Z,29.98
2019-03-01T20:59:46.814Z,28.60
2019-03-01T21:02:20.027Z,28.60
2019-03-01T21:04:54.678Z,26.33
2019-03-01T21:07:31.623Z,28.13
2019-03-01T21:10:05.005Z,28.05
2019-03-01T21:12:38.175Z,27.82
2019-03-01T21:15:14.088Z,30.10
2019-03-01T21:17:47.531Z,28.10
2019-03-01T21:20:21.699Z,27.35
2019-03-01T21:22:56.249Z,26.02
2019-03-01T21:25:30.549Z,26.50
2019-03-01T21:28:03.798Z,27.05
2019-03-01T21:30:38.725Z,26.52
2019-03-01T21:33:12.113Z,26.35
2019-03-01T21:35:47.741Z,25.90
2019-03-01T21:38:22.366Z,27.60
2019-03-01T21:40:55.674Z,25.35
2019-03-01T21:43:30.592Z,26.75
2019-03-01T21:46:04.849Z,25.20
2019-03-01T21:48:39.317Z,25.05
2019-03-01T21:51:14.768Z,28.27
2019-03-01T21:53:47.400Z,27.20
2019-03-01T21:56:22.043Z,26.20
2019-03-01T21:58:55.492Z,28.20
2019-03-01T22:01:28.960Z,26.82
2019-03-01T22:04:03.852Z,28.45
2019-03-01T22:06:37.166Z,28.60
2019-03-01T22:09:10.588Z,30.43
2019-03-01T22:11:45.780Z,29.20
2019-03-01T22:14:19.780Z,28.50
2019-03-01T22:16:54.342Z,27.35
2019-03-01T22:19:30.588Z,27.48
2019-03-01T22:22:02.399Z,27.90
2019-03-01T22:24:35.807Z,25.08
2019-03-01T22:27:09.368Z,28.15
2019-03-01T22:29:43.554Z,27.25
2019-03-01T22:32:18.844Z,26.80
2019-03-01T22:34:52.177Z,26.82
2019-03-01T22:37:28.461Z,26.68
2019-03-01T22:40:00.297Z,28.27
2019-03-01T22:42:34.935Z,30.32
2019-03-01T22:45:13.647Z,25.68
2019-03-01T22:47:48.257Z,27.80
2019-03-01T22:50:25.532Z,30.00
2019-03-01T22:53:03.147Z,28.05
2019-03-01T22:55:36.830Z,30.70
2019-03-01T23:00:54.499Z,27.52
2019-03-01T23:03:28.890Z,27.15
2019-03-01T23:06:02.057Z,30.25
2019-03-01T23:08:35.584Z,30.52
2019-03-01T23:11:09.816Z,30.75
2019-03-01T23:13:43.050Z,29.48
2019-03-01T23:16:18.836Z,27.35
2019-03-01T23:18:56.675Z,28.85
2019-03-01T23:21:26.837Z,29.52
2019-03-01T23:24:00.850Z,27.80
2019-03-01T23:26:34.622Z,28.05
2019-03-01T23:29:07.921Z,29.92
2019-03-01T23:31:44.445Z,26.33
2019-03-01T23:34:19.115Z,27.10
2019-03-01T23:36:51.985Z,29.10
2019-03-01T23:39:28.502Z,26.70
2019-03-01T23:42:01.793Z,28.73
2019-03-01T23:44:35.171Z,27.30
2019-03-01T23:47:08.413Z,27.32
2019-03-01T23:49:41.734Z,27.27
2019-03-01T23:52:14.882Z,27.42
2019-03-01T23:54:54.273Z,26.68
2019-03-01T23:57:27.660Z,28.55
